Terminal Aerodrome Forecast
Issued by NWS Grand Forks, ND

Home | Current Version | Previous Version | Graphics & Text | Print | Product List | Glossary On
Versions: 1 2 3 4 5 6 7 8 9 10 11 12 13 14 15 16 17 18 19 20
867
FTUS43 KFGF 272321 CCA
TAFGFK
TAF COR
KGFK 272321Z 2800/2824 26007KT P6SM VCSH BKN080
      TEMPO 2800/2803 4SM -SHRA OVC040
     FM280300 30010KT P6SM VCSH BKN090
     FM280600 30005KT P6SM BKN150
     FM281800 31017G26KT P6SM VCSH BKN045=

USA.gov is the U.S. government's official web portal to all federal, state and local government web resources and services.